sensor_id;sensor_type;location;lat;lon;timestamp;P1;durP1;ratioP1;P2;durP2;ratioP2
10537;SDS011;5317;49.048;8.468;2023-10-13T00:01:08;8.97;;;4.97;;
10537;SDS011;5317;49.048;8.468;2023-10-13T00:03:37;8.87;;;5.00;;
10537;SDS011;5317;49.048;8.468;2023-10-13T00:06:05;8.33;;;5.13;;
10537;SDS011;5317;49.048;8.468;2023-10-13T00:08:34;8.20;;;5.23;;
10537;SDS011;5317;49.048;8.468;2023-10-13T00:11:03;7.07;;;4.57;;
10537;SDS011;5317;49.048;8.468;2023-10-13T00:13:30;6.20;;;4.80;;
10537;SDS011;5317;49.048;8.468;2023-10-13T00:16:07;8.43;;;4.77;;
10537;SDS011;5317;49.048;8.468;2023-10-13T00:18:41;6.30;;;4.90;;
10537;SDS011;5317;49.048;8.468;2023-10-13T00:21:09;5.77;;;4.77;;
10537;SDS011;5317;49.048;8.468;2023-10-13T00:23:42;9.90;;;5.30;;
10537;SDS011;5317;49.048;8.468;2023-10-13T00:26:17;9.80;;;4.47;;
10537;SDS011;5317;49.048;8.468;2023-10-13T00:28:48;5.83;;;5.20;;
10537;SDS011;5317;49.048;8.468;2023-10-13T00:31:24;8.60;;;5.20;;
10537;SDS011;5317;49.048;8.468;2023-10-13T00:33:54;8.83;;;5.30;;
10537;SDS011;5317;49.048;8.468;2023-10-13T00:36:26;9.77;;;5.30;;
10537;SDS011;5317;49.048;8.468;2023-10-13T00:38:54;8.43;;;4.97;;
10537;SDS011;5317;49.048;8.468;2023-10-13T00:41:21;6.93;;;4.90;;
10537;SDS011;5317;49.048;8.468;2023-10-13T00:44:07;6.43;;;4.50;;
10537;SDS011;5317;49.048;8.468;2023-10-13T00:46:34;6.97;;;5.20;;
10537;SDS011;5317;49.048;8.468;2023-10-13T00:49:01;7.43;;;5.30;;
10537;SDS011;5317;49.048;8.468;2023-10-13T00:51:34;10.20;;;5.53;;
10537;SDS011;5317;49.048;8.468;2023-10-13T00:54:03;5.97;;;4.80;;
10537;SDS011;5317;49.048;8.468;2023-10-13T00:56:37;6.33;;;5.03;;
10537;SDS011;5317;49.048;8.468;2023-10-13T00:59:06;9.20;;;5.30;;
10537;SDS011;5317;49.048;8.468;2023-10-13T01:01:35;8.77;;;5.27;;
10537;SDS011;5317;49.048;8.468;2023-10-13T01:04:01;6.40;;;5.17;;
10537;SDS011;5317;49.048;8.468;2023-10-13T01:06:31;7.50;;;4.90;;
10537;SDS011;5317;49.048;8.468;2023-10-13T01:08:57;7.43;;;4.70;;
10537;SDS011;5317;49.048;8.468;2023-10-13T01:11:38;5.30;;;4.17;;
10537;SDS011;5317;49.048;8.468;2023-10-13T01:14:05;7.13;;;4.93;;
10537;SDS011;5317;49.048;8.468;2023-10-13T01:16:32;7.60;;;4.67;;
10537;SDS011;5317;49.048;8.468;2023-10-13T01:18:58;8.40;;;4.40;;
10537;SDS011;5317;49.048;8.468;2023-10-13T01:21:30;8.60;;;4.60;;
10537;SDS011;5317;49.048;8.468;2023-10-13T01:23:59;6.50;;;4.93;;
10537;SDS011;5317;49.048;8.468;2023-10-13T01:26:26;7.20;;;4.70;;
10537;SDS011;5317;49.048;8.468;2023-10-13T01:28:56;6.37;;;4.33;;
10537;SDS011;5317;49.048;8.468;2023-10-13T01:31:23;5.77;;;4.00;;
10537;SDS011;5317;49.048;8.468;2023-10-13T01:33:51;6.60;;;4.40;;
10537;SDS011;5317;49.048;8.468;2023-10-13T01:36:20;7.40;;;4.60;;
10537;SDS011;5317;49.048;8.468;2023-10-13T01:38:47;7.57;;;4.67;;
10537;SDS011;5317;49.048;8.468;2023-10-13T01:41:16;6.40;;;4.27;;
10537;SDS011;5317;49.048;8.468;2023-10-13T01:43:43;7.10;;;4.23;;
10537;SDS011;5317;49.048;8.468;2023-10-13T01:46:10;6.57;;;4.43;;
10537;SDS011;5317;49.048;8.468;2023-10-13T01:48:38;7.47;;;4.40;;
10537;SDS011;5317;49.048;8.468;2023-10-13T01:51:06;7.73;;;4.40;;
10537;SDS011;5317;49.048;8.468;2023-10-13T01:53:35;4.73;;;3.50;;
10537;SDS011;5317;49.048;8.468;2023-10-13T01:56:03;4.57;;;3.70;;
10537;SDS011;5317;49.048;8.468;2023-10-13T01:58:36;6.83;;;4.03;;
10537;SDS011;5317;49.048;8.468;2023-10-13T02:01:06;6.03;;;3.93;;
10537;SDS011;5317;49.048;8.468;2023-10-13T02:03:34;6.57;;;3.83;;
10537;SDS011;5317;49.048;8.468;2023-10-13T02:06:06;8.03;;;4.20;;
10537;SDS011;5317;49.048;8.468;2023-10-13T02:08:36;8.43;;;4.20;;
10537;SDS011;5317;49.048;8.468;2023-10-13T02:11:05;12.00;;;4.40;;
10537;SDS011;5317;49.048;8.468;2023-10-13T02:13:33;7.03;;;4.10;;
10537;SDS011;5317;49.048;8.468;2023-10-13T02:16:07;7.27;;;4.73;;
10537;SDS011;5317;49.048;8.468;2023-10-13T02:18:36;6.13;;;4.37;;
10537;SDS011;5317;49.048;8.468;2023-10-13T02:21:06;6.63;;;3.83;;
10537;SDS011;5317;49.048;8.468;2023-10-13T02:23:38;6.10;;;4.13;;
10537;SDS011;5317;49.048;8.468;2023-10-13T02:26:09;8.30;;;4.20;;
10537;SDS011;5317;49.048;8.468;2023-10-13T02:28:37;6.53;;;4.20;;
10537;SDS011;5317;49.048;8.468;2023-10-13T02:31:04;7.77;;;3.93;;
10537;SDS011;5317;49.048;8.468;2023-10-13T02:33:33;5.30;;;4.00;;
10537;SDS011;5317;49.048;8.468;2023-10-13T02:35:59;6.40;;;4.23;;
10537;SDS011;5317;49.048;8.468;2023-10-13T02:38:29;7.17;;;4.20;;
10537;SDS011;5317;49.048;8.468;2023-10-13T02:41:00;8.13;;;4.77;;
10537;SDS011;5317;49.048;8.468;2023-10-13T02:43:32;8.17;;;3.90;;
10537;SDS011;5317;49.048;8.468;2023-10-13T02:45:59;5.53;;;3.87;;
10537;SDS011;5317;49.048;8.468;2023-10-13T02:48:26;6.13;;;3.60;;
10537;SDS011;5317;49.048;8.468;2023-10-13T02:50:58;5.47;;;4.00;;
10537;SDS011;5317;49.048;8.468;2023-10-13T02:53:33;7.83;;;4.73;;
10537;SDS011;5317;49.048;8.468;2023-10-13T02:55:59;4.27;;;3.77;;
10537;SDS011;5317;49.048;8.468;2023-10-13T02:58:31;5.27;;;4.30;;
10537;SDS011;5317;49.048;8.468;2023-10-13T03:01:04;7.43;;;4.60;;
10537;SDS011;5317;49.048;8.468;2023-10-13T03:03:41;6.47;;;4.23;;
10537;SDS011;5317;49.048;8.468;2023-10-13T03:06:10;5.77;;;3.97;;
10537;SDS011;5317;49.048;8.468;2023-10-13T03:08:38;8.20;;;4.60;;
10537;SDS011;5317;49.048;8.468;2023-10-13T03:11:04;9.07;;;4.67;;
10537;SDS011;5317;49.048;8.468;2023-10-13T03:13:31;7.07;;;3.80;;
10537;SDS011;5317;49.048;8.468;2023-10-13T03:15:58;5.73;;;4.43;;
10537;SDS011;5317;49.048;8.468;2023-10-13T03:18:25;5.90;;;3.97;;
10537;SDS011;5317;49.048;8.468;2023-10-13T03:20:51;7.67;;;4.17;;
10537;SDS011;5317;49.048;8.468;2023-10-13T03:23:23;5.60;;;4.20;;
10537;SDS011;5317;49.048;8.468;2023-10-13T03:25:49;5.73;;;3.87;;
10537;SDS011;5317;49.048;8.468;2023-10-13T03:28:20;6.67;;;4.13;;
10537;SDS011;5317;49.048;8.468;2023-10-13T03:30:51;6.40;;;4.20;;
10537;SDS011;5317;49.048;8.468;2023-10-13T03:33:19;8.07;;;5.20;;
10537;SDS011;5317;49.048;8.468;2023-10-13T03:35:51;6.17;;;4.27;;
10537;SDS011;5317;49.048;8.468;2023-10-13T03:38:19;6.10;;;4.67;;
10537;SDS011;5317;49.048;8.468;2023-10-13T03:40:53;6.83;;;4.43;;
10537;SDS011;5317;49.048;8.468;2023-10-13T03:43:32;5.60;;;4.30;;
10537;SDS011;5317;49.048;8.468;2023-10-13T03:46:09;6.90;;;4.47;;
10537;SDS011;5317;49.048;8.468;2023-10-13T03:48:36;7.40;;;4.37;;
10537;SDS011;5317;49.048;8.468;2023-10-13T03:51:17;5.57;;;4.80;;
10537;SDS011;5317;49.048;8.468;2023-10-13T03:53:44;7.07;;;4.27;;
10537;SDS011;5317;49.048;8.468;2023-10-13T03:56:19;8.37;;;4.30;;
10537;SDS011;5317;49.048;8.468;2023-10-13T03:58:54;6.20;;;4.60;;
10537;SDS011;5317;49.048;8.468;2023-10-13T04:01:23;6.60;;;4.17;;
10537;SDS011;5317;49.048;8.468;2023-10-13T04:03:57;5.93;;;4.50;;
10537;SDS011;5317;49.048;8.468;2023-10-13T04:06:28;11.47;;;5.27;;
10537;SDS011;5317;49.048;8.468;2023-10-13T04:09:09;5.07;;;4.17;;
10537;SDS011;5317;49.048;8.468;2023-10-13T04:11:57;7.63;;;4.27;;
10537;SDS011;5317;49.048;8.468;2023-10-13T04:14:43;7.23;;;5.20;;
10537;SDS011;5317;49.048;8.468;2023-10-13T04:17:40;5.23;;;4.17;;
10537;SDS011;5317;49.048;8.468;2023-10-13T04:20:10;8.67;;;4.50;;
10537;SDS011;5317;49.048;8.468;2023-10-13T04:22:51;6.10;;;5.17;;
10537;SDS011;5317;49.048;8.468;2023-10-13T04:25:35;10.10;;;4.77;;
10537;SDS011;5317;49.048;8.468;2023-10-13T04:28:18;7.03;;;5.13;;
10537;SDS011;5317;49.048;8.468;2023-10-13T04:30:59;10.20;;;5.40;;
10537;SDS011;5317;49.048;8.468;2023-10-13T04:33:37;6.77;;;4.47;;
10537;SDS011;5317;49.048;8.468;2023-10-13T04:36:16;5.87;;;4.80;;
10537;SDS011;5317;49.048;8.468;2023-10-13T04:38:47;6.53;;;4.80;;
10537;SDS011;5317;49.048;8.468;2023-10-13T04:41:25;8.27;;;5.50;;
10537;SDS011;5317;49.048;8.468;2023-10-13T04:43:58;8.60;;;4.90;;
10537;SDS011;5317;49.048;8.468;2023-10-13T04:46:48;7.73;;;5.10;;
10537;SDS011;5317;49.048;8.468;2023-10-13T04:49:33;7.53;;;4.73;;
10537;SDS011;5317;49.048;8.468;2023-10-13T04:52:15;6.27;;;4.30;;
10537;SDS011;5317;49.048;8.468;2023-10-13T04:55:10;7.07;;;4.80;;
10537;SDS011;5317;49.048;8.468;2023-10-13T04:57:57;9.03;;;5.13;;
10537;SDS011;5317;49.048;8.468;2023-10-13T05:00:36;6.47;;;4.90;;
10537;SDS011;5317;49.048;8.468;2023-10-13T05:03:34;5.63;;;5.03;;
10537;SDS011;5317;49.048;8.468;2023-10-13T05:06:17;8.13;;;4.77;;
10537;SDS011;5317;49.048;8.468;2023-10-13T05:08:58;6.90;;;5.10;;
10537;SDS011;5317;49.048;8.468;2023-10-13T05:11:43;5.87;;;4.50;;
10537;SDS011;5317;49.048;8.468;2023-10-13T05:14:27;7.37;;;4.80;;
10537;SDS011;5317;49.048;8.468;2023-10-13T05:17:12;6.83;;;4.80;;
10537;SDS011;5317;49.048;8.468;2023-10-13T05:19:57;5.57;;;4.93;;
10537;SDS011;5317;49.048;8.468;2023-10-13T05:22:42;6.37;;;4.47;;
10537;SDS011;5317;49.048;8.468;2023-10-13T05:25:26;6.30;;;4.73;;
10537;SDS011;5317;49.048;8.468;2023-10-13T05:28:10;5.70;;;4.77;;
10537;SDS011;5317;49.048;8.468;2023-10-13T05:30:51;10.93;;;4.80;;
10537;SDS011;5317;49.048;8.468;2023-10-13T05:33:37;7.20;;;5.27;;
10537;SDS011;5317;49.048;8.468;2023-10-13T05:36:21;6.17;;;4.57;;
10537;SDS011;5317;49.048;8.468;2023-10-13T05:39:05;6.53;;;5.43;;
10537;SDS011;5317;49.048;8.468;2023-10-13T05:41:49;7.03;;;5.10;;
10537;SDS011;5317;49.048;8.468;2023-10-13T05:44:33;5.50;;;4.73;;
10537;SDS011;5317;49.048;8.468;2023-10-13T05:47:02;7.27;;;5.40;;
10537;SDS011;5317;49.048;8.468;2023-10-13T05:50:10;7.13;;;4.53;;
10537;SDS011;5317;49.048;8.468;2023-10-13T05:52:54;5.97;;;4.80;;
10537;SDS011;5317;49.048;8.468;2023-10-13T05:55:38;6.67;;;4.73;;
10537;SDS011;5317;49.048;8.468;2023-10-13T05:58:22;6.83;;;5.20;;
10537;SDS011;5317;49.048;8.468;2023-10-13T06:01:11;7.00;;;5.10;;
10537;SDS011;5317;49.048;8.468;2023-10-13T06:03:56;5.20;;;4.67;;
10537;SDS011;5317;49.048;8.468;2023-10-13T06:06:41;7.37;;;4.87;;
10537;SDS011;5317;49.048;8.468;2023-10-13T06:09:25;6.00;;;5.40;;
10537;SDS011;5317;49.048;8.468;2023-10-13T06:12:10;7.50;;;5.03;;
10537;SDS011;5317;49.048;8.468;2023-10-13T06:14:54;7.30;;;5.47;;
10537;SDS011;5317;49.048;8.468;2023-10-13T06:17:38;6.70;;;5.43;;
10537;SDS011;5317;49.048;8.468;2023-10-13T06:20:22;6.73;;;5.50;;
10537;SDS011;5317;49.048;8.468;2023-10-13T06:23:08;5.70;;;5.03;;
10537;SDS011;5317;49.048;8.468;2023-10-13T06:25:52;6.47;;;5.50;;
10537;SDS011;5317;49.048;8.468;2023-10-13T06:28:37;6.87;;;5.60;;
10537;SDS011;5317;49.048;8.468;2023-10-13T06:31:07;6.67;;;5.37;;
10537;SDS011;5317;49.048;8.468;2023-10-13T06:33:39;6.73;;;4.60;;
10537;SDS011;5317;49.048;8.468;2023-10-13T06:36:10;7.50;;;4.90;;
10537;SDS011;5317;49.048;8.468;2023-10-13T06:38:38;10.03;;;4.83;;
10537;SDS011;5317;49.048;8.468;2023-10-13T06:41:06;7.53;;;5.60;;
10537;SDS011;5317;49.048;8.468;2023-10-13T06:43:34;8.27;;;4.83;;
10537;SDS011;5317;49.048;8.468;2023-10-13T06:46:05;8.13;;;5.27;;
10537;SDS011;5317;49.048;8.468;2023-10-13T06:48:39;7.23;;;5.77;;
10537;SDS011;5317;49.048;8.468;2023-10-13T06:51:06;7.80;;;5.97;;
10537;SDS011;5317;49.048;8.468;2023-10-13T06:53:44;9.13;;;5.53;;
10537;SDS011;5317;49.048;8.468;2023-10-13T06:56:13;9.10;;;5.20;;
10537;SDS011;5317;49.048;8.468;2023-10-13T06:58:43;8.80;;;5.40;;
10537;SDS011;5317;49.048;8.468;2023-10-13T07:01:09;8.03;;;5.33;;
10537;SDS011;5317;49.048;8.468;2023-10-13T07:03:40;8.07;;;6.13;;
10537;SDS011;5317;49.048;8.468;2023-10-13T07:06:07;9.97;;;6.33;;
10537;SDS011;5317;49.048;8.468;2023-10-13T07:08:36;9.77;;;6.83;;
10537;SDS011;5317;49.048;8.468;2023-10-13T07:11:04;10.70;;;7.03;;
10537;SDS011;5317;49.048;8.468;2023-10-13T07:13:33;12.67;;;6.63;;
10537;SDS011;5317;49.048;8.468;2023-10-13T07:16:03;9.07;;;6.23;;
10537;SDS011;5317;49.048;8.468;2023-10-13T07:18:33;9.40;;;7.07;;
10537;SDS011;5317;49.048;8.468;2023-10-13T07:21:04;9.70;;;6.50;;
10537;SDS011;5317;49.048;8.468;2023-10-13T07:23:36;9.33;;;5.77;;
10537;SDS011;5317;49.048;8.468;2023-10-13T07:26:04;8.37;;;5.97;;
10537;SDS011;5317;49.048;8.468;2023-10-13T07:28:33;9.70;;;5.57;;
10537;SDS011;5317;49.048;8.468;2023-10-13T07:31:01;7.90;;;5.50;;
10537;SDS011;5317;49.048;8.468;2023-10-13T07:33:43;7.30;;;5.20;;
10537;SDS011;5317;49.048;8.468;2023-10-13T07:36:11;8.10;;;4.93;;
10537;SDS011;5317;49.048;8.468;2023-10-13T07:38:43;7.53;;;4.80;;
10537;SDS011;5317;49.048;8.468;2023-10-13T07:41:15;6.73;;;5.00;;
10537;SDS011;5317;49.048;8.468;2023-10-13T07:43:42;5.67;;;4.80;;
10537;SDS011;5317;49.048;8.468;2023-10-13T07:46:10;5.27;;;4.47;;
10537;SDS011;5317;49.048;8.468;2023-10-13T07:48:38;8.40;;;4.93;;
10537;SDS011;5317;49.048;8.468;2023-10-13T07:51:05;6.13;;;5.10;;
10537;SDS011;5317;49.048;8.468;2023-10-13T07:53:39;9.80;;;5.93;;
10537;SDS011;5317;49.048;8.468;2023-10-13T07:56:08;9.10;;;5.87;;
10537;SDS011;5317;49.048;8.468;2023-10-13T07:58:38;10.70;;;5.37;;
10537;SDS011;5317;49.048;8.468;2023-10-13T08:01:17;9.73;;;4.80;;
10537;SDS011;5317;49.048;8.468;2023-10-13T08:03:45;10.23;;;5.30;;
10537;SDS011;5317;49.048;8.468;2023-10-13T08:06:12;8.03;;;4.90;;
10537;SDS011;5317;49.048;8.468;2023-10-13T08:08:53;6.33;;;4.50;;
10537;SDS011;5317;49.048;8.468;2023-10-13T08:11:24;7.93;;;4.50;;
10537;SDS011;5317;49.048;8.468;2023-10-13T08:13:54;8.47;;;4.50;;
10537;SDS011;5317;49.048;8.468;2023-10-13T08:16:24;8.57;;;4.47;;
10537;SDS011;5317;49.048;8.468;2023-10-13T08:19:10;5.33;;;4.23;;
10537;SDS011;5317;49.048;8.468;2023-10-13T08:21:38;10.03;;;4.20;;
10537;SDS011;5317;49.048;8.468;2023-10-13T08:24:08;8.87;;;4.40;;
10537;SDS011;5317;49.048;8.468;2023-10-13T08:26:40;8.03;;;4.47;;
10537;SDS011;5317;49.048;8.468;2023-10-13T08:29:25;7.33;;;4.00;;
10537;SDS011;5317;49.048;8.468;2023-10-13T08:32:10;9.53;;;4.33;;
10537;SDS011;5317;49.048;8.468;2023-10-13T08:35:09;5.73;;;3.77;;
10537;SDS011;5317;49.048;8.468;2023-10-13T08:37:47;4.50;;;4.07;;
10537;SDS011;5317;49.048;8.468;2023-10-13T08:40:26;6.67;;;4.10;;
10537;SDS011;5317;49.048;8.468;2023-10-13T08:43:11;6.53;;;4.10;;
10537;SDS011;5317;49.048;8.468;2023-10-13T08:45:40;6.47;;;4.30;;
10537;SDS011;5317;49.048;8.468;2023-10-13T08:48:23;7.40;;;4.10;;
10537;SDS011;5317;49.048;8.468;2023-10-13T08:51:00;6.07;;;3.90;;
10537;SDS011;5317;49.048;8.468;2023-10-13T08:53:37;7.53;;;4.00;;
10537;SDS011;5317;49.048;8.468;2023-10-13T08:56:17;8.67;;;4.07;;
10537;SDS011;5317;49.048;8.468;2023-10-13T08:58:57;5.43;;;3.60;;
10537;SDS011;5317;49.048;8.468;2023-10-13T09:01:33;10.17;;;3.90;;
10537;SDS011;5317;49.048;8.468;2023-10-13T09:04:00;8.83;;;3.77;;
10537;SDS011;5317;49.048;8.468;2023-10-13T09:06:41;5.60;;;3.73;;
10537;SDS011;5317;49.048;8.468;2023-10-13T09:09:12;5.50;;;3.40;;
10537;SDS011;5317;49.048;8.468;2023-10-13T09:11:52;7.90;;;3.53;;
10537;SDS011;5317;49.048;8.468;2023-10-13T09:14:32;5.30;;;3.60;;
10537;SDS011;5317;49.048;8.468;2023-10-13T09:17:06;5.53;;;3.53;;
10537;SDS011;5317;49.048;8.468;2023-10-13T09:19:44;8.60;;;4.27;;
10537;SDS011;5317;49.048;8.468;2023-10-13T09:22:21;6.33;;;3.57;;
10537;SDS011;5317;49.048;8.468;2023-10-13T09:24:54;6.57;;;4.00;;
10537;SDS011;5317;49.048;8.468;2023-10-13T09:27:23;5.93;;;3.70;;
10537;SDS011;5317;49.048;8.468;2023-10-13T09:29:55;7.60;;;3.70;;
10537;SDS011;5317;49.048;8.468;2023-10-13T09:32:23;6.90;;;6.20;;
10537;SDS011;5317;49.048;8.468;2023-10-13T09:34:50;4.57;;;3.53;;
10537;SDS011;5317;49.048;8.468;2023-10-13T09:37:16;4.80;;;3.67;;
10537;SDS011;5317;49.048;8.468;2023-10-13T09:39:47;6.63;;;4.10;;
10537;SDS011;5317;49.048;8.468;2023-10-13T09:42:17;5.90;;;4.33;;
10537;SDS011;5317;49.048;8.468;2023-10-13T09:44:48;6.73;;;3.50;;
10537;SDS011;5317;49.048;8.468;2023-10-13T09:47:21;7.03;;;3.50;;
10537;SDS011;5317;49.048;8.468;2023-10-13T09:49:58;6.47;;;3.60;;
10537;SDS011;5317;49.048;8.468;2023-10-13T09:52:30;7.20;;;4.00;;
10537;SDS011;5317;49.048;8.468;2023-10-13T09:55:11;5.60;;;3.30;;
10537;SDS011;5317;49.048;8.468;2023-10-13T09:57:45;5.17;;;3.50;;
10537;SDS011;5317;49.048;8.468;2023-10-13T10:00:23;6.07;;;3.50;;
10537;SDS011;5317;49.048;8.468;2023-10-13T10:03:11;6.93;;;3.33;;
10537;SDS011;5317;49.048;8.468;2023-10-13T10:05:59;4.53;;;3.20;;
10537;SDS011;5317;49.048;8.468;2023-10-13T10:08:31;9.70;;;3.20;;
10537;SDS011;5317;49.048;8.468;2023-10-13T10:11:16;7.77;;;3.10;;
10537;SDS011;5317;49.048;8.468;2023-10-13T10:14:07;5.97;;;3.60;;
10537;SDS011;5317;49.048;8.468;2023-10-13T10:16:39;6.10;;;3.23;;
10537;SDS011;5317;49.048;8.468;2023-10-13T10:19:16;4.97;;;3.20;;
10537;SDS011;5317;49.048;8.468;2023-10-13T10:21:45;5.43;;;3.07;;
10537;SDS011;5317;49.048;8.468;2023-10-13T10:24:14;6.97;;;3.70;;
10537;SDS011;5317;49.048;8.468;2023-10-13T10:26:51;5.03;;;3.07;;
10537;SDS011;5317;49.048;8.468;2023-10-13T10:29:19;7.00;;;2.93;;
10537;SDS011;5317;49.048;8.468;2023-10-13T10:31:45;7.27;;;3.57;;
10537;SDS011;5317;49.048;8.468;2023-10-13T10:34:13;4.60;;;3.10;;
10537;SDS011;5317;49.048;8.468;2023-10-13T10:36:44;6.03;;;3.07;;
10537;SDS011;5317;49.048;8.468;2023-10-13T10:39:19;5.73;;;3.67;;
10537;SDS011;5317;49.048;8.468;2023-10-13T10:42:07;5.63;;;3.53;;
10537;SDS011;5317;49.048;8.468;2023-10-13T10:44:40;3.80;;;3.00;;
10537;SDS011;5317;49.048;8.468;2023-10-13T10:47:09;8.47;;;3.40;;
10537;SDS011;5317;49.048;8.468;2023-10-13T10:49:37;5.33;;;3.40;;
10537;SDS011;5317;49.048;8.468;2023-10-13T10:52:07;4.40;;;3.10;;
10537;SDS011;5317;49.048;8.468;2023-10-13T10:54:43;5.53;;;3.37;;
10537;SDS011;5317;49.048;8.468;2023-10-13T10:57:16;7.27;;;3.40;;
10537;SDS011;5317;49.048;8.468;2023-10-13T10:59:44;5.60;;;3.50;;
10537;SDS011;5317;49.048;8.468;2023-10-13T11:02:11;4.33;;;3.30;;
10537;SDS011;5317;49.048;8.468;2023-10-13T11:04:43;9.87;;;3.70;;
10537;SDS011;5317;49.048;8.468;2023-10-13T11:07:21;6.63;;;3.47;;
10537;SDS011;5317;49.048;8.468;2023-10-13T11:09:49;6.07;;;3.60;;
10537;SDS011;5317;49.048;8.468;2023-10-13T11:12:18;11.47;;;3.30;;
10537;SDS011;5317;49.048;8.468;2023-10-13T11:15:00;8.50;;;3.73;;
10537;SDS011;5317;49.048;8.468;2023-10-13T11:17:30;5.13;;;3.73;;
10537;SDS011;5317;49.048;8.468;2023-10-13T11:20:10;7.37;;;3.30;;
10537;SDS011;5317;49.048;8.468;2023-10-13T11:22:42;5.53;;;3.10;;
10537;SDS011;5317;49.048;8.468;2023-10-13T11:25:19;7.03;;;3.50;;
10537;SDS011;5317;49.048;8.468;2023-10-13T11:27:54;5.77;;;3.23;;
10537;SDS011;5317;49.048;8.468;2023-10-13T11:30:23;7.50;;;3.27;;
10537;SDS011;5317;49.048;8.468;2023-10-13T11:32:58;7.07;;;3.50;;
10537;SDS011;5317;49.048;8.468;2023-10-13T11:35:26;7.53;;;3.63;;
10537;SDS011;5317;49.048;8.468;2023-10-13T11:38:15;8.70;;;3.67;;
10537;SDS011;5317;49.048;8.468;2023-10-13T11:40:50;4.77;;;3.13;;
10537;SDS011;5317;49.048;8.468;2023-10-13T11:43:41;8.17;;;3.43;;
10537;SDS011;5317;49.048;8.468;2023-10-13T11:46:31;7.50;;;3.47;;
10537;SDS011;5317;49.048;8.468;2023-10-13T11:49:30;11.00;;;3.70;;
10537;SDS011;5317;49.048;8.468;2023-10-13T11:52:02;6.47;;;3.13;;
10537;SDS011;5317;49.048;8.468;2023-10-13T11:54:45;5.63;;;3.33;;
10537;SDS011;5317;49.048;8.468;2023-10-13T11:57:13;4.60;;;3.40;;
10537;SDS011;5317;49.048;8.468;2023-10-13T11:59:42;4.93;;;3.30;;
10537;SDS011;5317;49.048;8.468;2023-10-13T12:02:18;5.20;;;3.10;;
10537;SDS011;5317;49.048;8.468;2023-10-13T12:05:04;8.00;;;3.70;;
10537;SDS011;5317;49.048;8.468;2023-10-13T12:07:37;9.77;;;4.00;;
10537;SDS011;5317;49.048;8.468;2023-10-13T12:10:14;4.57;;;3.57;;
10537;SDS011;5317;49.048;8.468;2023-10-13T12:12:45;7.60;;;3.77;;
10537;SDS011;5317;49.048;8.468;2023-10-13T12:15:18;4.03;;;3.00;;
10537;SDS011;5317;49.048;8.468;2023-10-13T12:18:01;6.30;;;3.63;;
10537;SDS011;5317;49.048;8.468;2023-10-13T12:20:30;5.23;;;3.70;;
10537;SDS011;5317;49.048;8.468;2023-10-13T12:23:01;5.13;;;3.03;;
10537;SDS011;5317;49.048;8.468;2023-10-13T12:25:43;6.83;;;3.80;;
10537;SDS011;5317;49.048;8.468;2023-10-13T12:28:22;5.63;;;3.37;;
10537;SDS011;5317;49.048;8.468;2023-10-13T12:30:51;7.13;;;3.50;;
10537;SDS011;5317;49.048;8.468;2023-10-13T12:33:19;4.90;;;3.43;;
10537;SDS011;5317;49.048;8.468;2023-10-13T12:36:02;5.37;;;3.50;;
10537;SDS011;5317;49.048;8.468;2023-10-13T12:38:32;6.40;;;3.40;;
10537;SDS011;5317;49.048;8.468;2023-10-13T12:41:17;4.77;;;3.20;;
10537;SDS011;5317;49.048;8.468;2023-10-13T12:44:03;8.80;;;4.17;;
10537;SDS011;5317;49.048;8.468;2023-10-13T12:46:48;6.17;;;3.63;;
10537;SDS011;5317;49.048;8.468;2023-10-13T12:49:32;10.23;;;3.90;;
10537;SDS011;5317;49.048;8.468;2023-10-13T12:52:17;4.10;;;3.70;;
10537;SDS011;5317;49.048;8.468;2023-10-13T12:54:44;7.10;;;3.80;;
10537;SDS011;5317;49.048;8.468;2023-10-13T12:57:25;4.10;;;3.20;;
10537;SDS011;5317;49.048;8.468;2023-10-13T12:59:52;7.93;;;3.77;;
10537;SDS011;5317;49.048;8.468;2023-10-13T13:02:19;7.00;;;3.33;;
10537;SDS011;5317;49.048;8.468;2023-10-13T13:04:49;6.47;;;3.70;;
10537;SDS011;5317;49.048;8.468;2023-10-13T13:07:22;4.57;;;3.20;;
10537;SDS011;5317;49.048;8.468;2023-10-13T13:09:54;4.40;;;3.40;;
10537;SDS011;5317;49.048;8.468;2023-10-13T13:12:26;5.67;;;4.07;;
10537;SDS011;5317;49.048;8.468;2023-10-13T13:14:54;6.47;;;3.20;;
10537;SDS011;5317;49.048;8.468;2023-10-13T13:17:21;6.37;;;3.83;;
10537;SDS011;5317;49.048;8.468;2023-10-13T13:19:48;5.93;;;3.37;;
10537;SDS011;5317;49.048;8.468;2023-10-13T13:22:15;5.40;;;3.67;;
10537;SDS011;5317;49.048;8.468;2023-10-13T13:24:43;4.90;;;3.20;;
10537;SDS011;5317;49.048;8.468;2023-10-13T13:27:10;3.97;;;3.20;;
10537;SDS011;5317;49.048;8.468;2023-10-13T13:29:40;4.63;;;3.13;;
10537;SDS011;5317;49.048;8.468;2023-10-13T13:32:07;7.13;;;3.47;;
10537;SDS011;5317;49.048;8.468;2023-10-13T13:34:43;6.03;;;3.30;;
10537;SDS011;5317;49.048;8.468;2023-10-13T13:37:10;6.13;;;3.70;;
10537;SDS011;5317;49.048;8.468;2023-10-13T13:39:38;5.80;;;3.50;;
10537;SDS011;5317;49.048;8.468;2023-10-13T13:42:08;6.37;;;3.17;;
10537;SDS011;5317;49.048;8.468;2023-10-13T13:44:36;5.73;;;3.40;;
10537;SDS011;5317;49.048;8.468;2023-10-13T13:47:04;7.10;;;3.17;;
10537;SDS011;5317;49.048;8.468;2023-10-13T13:49:37;4.55;;;3.10;;
10537;SDS011;5317;49.048;8.468;2023-10-13T13:52:06;4.35;;;3.55;;
10537;SDS011;5317;49.048;8.468;2023-10-13T13:54:33;7.43;;;3.03;;
10537;SDS011;5317;49.048;8.468;2023-10-13T13:57:00;5.75;;;3.15;;
10537;SDS011;5317;49.048;8.468;2023-10-13T13:59:26;3.90;;;3.03;;
10537;SDS011;5317;49.048;8.468;2023-10-13T14:01:59;6.28;;;3.40;;
10537;SDS011;5317;49.048;8.468;2023-10-13T14:04:32;5.72;;;3.10;;
10537;SDS011;5317;49.048;8.468;2023-10-13T14:06:59;4.57;;;3.30;;
10537;SDS011;5317;49.048;8.468;2023-10-13T14:09:31;6.13;;;3.45;;
10537;SDS011;5317;49.048;8.468;2023-10-13T14:12:01;6.45;;;3.25;;
10537;SDS011;5317;49.048;8.468;2023-10-13T14:14:50;4.72;;;3.47;;
10537;SDS011;5317;49.048;8.468;2023-10-13T14:17:21;5.15;;;3.05;;
10537;SDS011;5317;49.048;8.468;2023-10-13T14:19:55;4.32;;;3.15;;
10537;SDS011;5317;49.048;8.468;2023-10-13T14:22:23;4.65;;;3.72;;
10537;SDS011;5317;49.048;8.468;2023-10-13T14:24:51;4.32;;;3.42;;
10537;SDS011;5317;49.048;8.468;2023-10-13T14:27:20;5.50;;;3.42;;
10537;SDS011;5317;49.048;8.468;2023-10-13T14:29:49;5.90;;;3.38;;
10537;SDS011;5317;49.048;8.468;2023-10-13T14:32:18;9.38;;;3.58;;
10537;SDS011;5317;49.048;8.468;2023-10-13T14:34:49;6.05;;;3.50;;
10537;SDS011;5317;49.048;8.468;2023-10-13T14:37:23;9.23;;;3.90;;
10537;SDS011;5317;49.048;8.468;2023-10-13T14:39:54;5.43;;;3.47;;
10537;SDS011;5317;49.048;8.468;2023-10-13T14:42:23;6.17;;;3.00;;
10537;SDS011;5317;49.048;8.468;2023-10-13T14:44:50;5.20;;;3.37;;
10537;SDS011;5317;49.048;8.468;2023-10-13T14:47:21;5.33;;;3.60;;
10537;SDS011;5317;49.048;8.468;2023-10-13T14:49:50;4.93;;;3.20;;
10537;SDS011;5317;49.048;8.468;2023-10-13T14:52:20;4.77;;;3.57;;
10537;SDS011;5317;49.048;8.468;2023-10-13T14:54:48;3.93;;;3.17;;
10537;SDS011;5317;49.048;8.468;2023-10-13T14:57:20;5.80;;;3.10;;
10537;SDS011;5317;49.048;8.468;2023-10-13T14:59:49;5.53;;;3.27;;
10537;SDS011;5317;49.048;8.468;2023-10-13T15:02:17;3.97;;;3.10;;
10537;SDS011;5317;49.048;8.468;2023-10-13T15:04:44;4.00;;;3.40;;
10537;SDS011;5317;49.048;8.468;2023-10-13T15:07:13;4.70;;;3.27;;
10537;SDS011;5317;49.048;8.468;2023-10-13T15:09:42;4.17;;;3.40;;
10537;SDS011;5317;49.048;8.468;2023-10-13T15:12:09;4.80;;;3.37;;
10537;SDS011;5317;49.048;8.468;2023-10-13T15:14:37;3.90;;;3.33;;
10537;SDS011;5317;49.048;8.468;2023-10-13T15:17:04;4.73;;;2.80;;
10537;SDS011;5317;49.048;8.468;2023-10-13T15:19:32;5.73;;;3.27;;
10537;SDS011;5317;49.048;8.468;2023-10-13T15:22:01;6.67;;;3.20;;
10537;SDS011;5317;49.048;8.468;2023-10-13T15:24:31;3.90;;;3.13;;
10537;SDS011;5317;49.048;8.468;2023-10-13T15:27:02;5.90;;;3.00;;
10537;SDS011;5317;49.048;8.468;2023-10-13T15:29:33;6.97;;;3.20;;
10537;SDS011;5317;49.048;8.468;2023-10-13T15:32:01;5.97;;;3.20;;
10537;SDS011;5317;49.048;8.468;2023-10-13T15:34:51;3.13;;;2.70;;
10537;SDS011;5317;49.048;8.468;2023-10-13T15:37:17;3.93;;;2.50;;
10537;SDS011;5317;49.048;8.468;2023-10-13T15:39:50;4.47;;;3.17;;